createdAt,value
2022-11-08T00:00:20.986Z,58.30
2022-11-08T00:02:22.423Z,58.83
2022-11-08T00:04:23.834Z,59.16
2022-11-08T00:06:44.006Z,60.87
2022-11-08T00:09:03.948Z,59.89
2022-11-08T00:11:23.877Z,60.12
2022-11-08T00:13:43.705Z,59.76
2022-11-08T00:15:44.981Z,58.54
2022-11-08T00:17:46.495Z,59.08
2022-11-08T00:19:47.806Z,59.12
2022-11-08T00:21:49.090Z,59.53
2022-11-08T00:23:50.420Z,59.85
2022-11-08T00:25:51.743Z,60.02
2022-11-08T00:27:53.054Z,60.25
2022-11-08T00:29:54.369Z,60.26
2022-11-08T00:31:55.710Z,60.00
2022-11-08T00:33:57.017Z,60.39
2022-11-08T00:35:58.342Z,58.91
2022-11-08T00:37:59.665Z,59.66
2022-11-08T00:40:01.049Z,60.18
2022-11-08T00:42:02.304Z,60.84
2022-11-08T00:44:03.575Z,61.46
2022-11-08T00:46:04.877Z,61.28
2022-11-08T00:48:06.305Z,61.38
2022-11-08T00:50:07.597Z,61.40
2022-11-08T00:52:08.900Z,61.58
2022-11-08T00:54:10.167Z,61.37
2022-11-08T00:56:11.789Z,61.57
2022-11-08T00:58:13.104Z,61.72
2022-11-08T01:00:14.369Z,62.10
2022-11-08T01:02:16.475Z,62.01
2022-11-08T01:04:17.810Z,61.74
2022-11-08T01:06:19.122Z,62.08
2022-11-08T01:08:20.837Z,61.45
2022-11-08T01:10:22.406Z,61.94
2022-11-08T01:12:23.707Z,61.95
2022-11-08T01:14:25.006Z,62.16
2022-11-08T01:16:26.270Z,62.39
2022-11-08T01:18:27.617Z,61.94
2022-11-08T01:20:28.918Z,62.27
2022-11-08T01:22:30.221Z,61.94
2022-11-08T01:24:31.554Z,55.99
2022-11-08T01:26:32.812Z,54.67
2022-11-08T01:28:34.093Z,58.71
2022-11-08T01:30:35.404Z,57.25
2022-11-08T01:32:36.693Z,57.18
2022-11-08T01:34:37.983Z,57.49
2022-11-08T01:36:39.300Z,58.09
2022-11-08T01:38:40.573Z,58.75
2022-11-08T01:40:41.891Z,59.28
2022-11-08T01:42:43.189Z,59.31
2022-11-08T01:44:44.469Z,59.64
2022-11-08T01:46:45.824Z,59.91
2022-11-08T01:48:47.401Z,60.05
2022-11-08T01:50:48.673Z,60.27
2022-11-08T01:52:49.954Z,60.42
2022-11-08T01:54:51.459Z,60.70
2022-11-08T01:56:52.782Z,60.89
2022-11-08T01:58:54.094Z,61.43
2022-11-08T02:00:55.470Z,61.38
2022-11-08T02:02:56.848Z,61.52
2022-11-08T02:04:58.134Z,61.72
2022-11-08T02:06:59.420Z,61.65
2022-11-08T02:09:00.681Z,61.97
2022-11-08T02:11:01.948Z,62.36
2022-11-08T02:13:05.224Z,62.77
2022-11-08T02:15:07.681Z,62.94
2022-11-08T02:17:09.728Z,63.24
2022-11-08T02:19:11.056Z,63.82
2022-11-08T02:21:12.361Z,63.35
2022-11-08T02:23:13.639Z,63.38
2022-11-08T02:25:14.912Z,63.27
2022-11-08T02:27:16.223Z,63.56
2022-11-08T02:29:17.544Z,63.97
2022-11-08T02:31:18.880Z,63.84
2022-11-08T02:33:20.188Z,64.05
2022-11-08T02:35:21.466Z,64.32
2022-11-08T02:37:22.730Z,64.16
2022-11-08T02:39:24.047Z,64.62
2022-11-08T02:41:25.340Z,65.10
2022-11-08T02:43:26.670Z,64.80
2022-11-08T02:45:27.938Z,65.07
2022-11-08T02:47:29.215Z,65.42
2022-11-08T02:49:30.485Z,65.60
2022-11-08T02:51:31.835Z,65.55
2022-11-08T02:53:33.134Z,65.82
2022-11-08T02:55:34.500Z,66.05
2022-11-08T02:57:35.781Z,65.70
2022-11-08T02:59:37.103Z,66.09
2022-11-08T03:01:38.515Z,66.20
2022-11-08T03:03:39.928Z,66.35
2022-11-08T03:05:43.293Z,66.04
2022-11-08T03:07:44.664Z,66.17
2022-11-08T03:09:45.999Z,65.98
2022-11-08T03:11:47.261Z,66.06
2022-11-08T03:13:48.532Z,66.13
2022-11-08T03:15:49.988Z,65.78
2022-11-08T03:17:51.241Z,65.60
2022-11-08T03:19:53.698Z,65.78
2022-11-08T03:21:54.965Z,65.52
2022-11-08T03:23:56.252Z,65.59
2022-11-08T03:25:57.581Z,65.72
2022-11-08T03:27:58.854Z,65.63
2022-11-08T03:30:00.125Z,65.20
2022-11-08T03:32:01.396Z,65.14
2022-11-08T03:34:02.686Z,65.19
2022-11-08T03:36:03.987Z,65.39
2022-11-08T03:38:05.280Z,65.44
2022-11-08T03:40:06.577Z,65.31
2022-11-08T03:42:08.115Z,65.88
2022-11-08T03:44:09.445Z,65.82
2022-11-08T03:46:10.722Z,65.30
2022-11-08T03:48:12.010Z,65.72
2022-11-08T03:50:13.333Z,65.93
2022-11-08T03:52:14.613Z,66.09
2022-11-08T03:54:15.945Z,66.07
2022-11-08T03:56:17.218Z,66.59
2022-11-08T03:58:18.770Z,66.85
2022-11-08T04:00:20.333Z,66.81
2022-11-08T04:02:21.654Z,66.66
2022-11-08T04:04:22.988Z,66.95
2022-11-08T04:06:24.279Z,67.16
2022-11-08T04:08:25.619Z,67.32
2022-11-08T04:10:26.872Z,67.81
2022-11-08T04:12:47.412Z,67.71
2022-11-08T04:15:07.317Z,68.08
2022-11-08T04:17:08.590Z,67.84
2022-11-08T04:19:28.857Z,67.82
2022-11-08T04:21:30.165Z,67.79
2022-11-08T04:23:31.496Z,67.60
2022-11-08T04:25:35.228Z,67.83
2022-11-08T04:27:36.730Z,67.51
2022-11-08T04:29:38.061Z,68.02
2022-11-08T04:31:39.330Z,67.27
2022-11-08T04:33:40.625Z,67.65
2022-11-08T04:35:41.882Z,67.19
2022-11-08T04:37:43.145Z,67.28
2022-11-08T04:39:44.412Z,66.71
2022-11-08T04:41:45.756Z,67.04
2022-11-08T04:43:47.054Z,66.86
2022-11-08T04:45:48.355Z,66.75
2022-11-08T04:47:49.670Z,66.91
2022-11-08T04:49:51.048Z,66.93
2022-11-08T04:51:52.333Z,66.79
2022-11-08T04:53:53.677Z,66.67
2022-11-08T04:55:55.160Z,66.65
2022-11-08T04:57:56.442Z,66.48
2022-11-08T04:59:57.741Z,66.63
2022-11-08T05:01:59.160Z,66.67
2022-11-08T05:04:00.497Z,66.40
2022-11-08T05:06:01.972Z,66.50
2022-11-08T05:08:03.241Z,66.93
2022-11-08T05:10:04.759Z,66.69
2022-11-08T05:12:06.035Z,66.69
2022-11-08T05:14:07.376Z,67.01
2022-11-08T05:16:08.659Z,67.16
2022-11-08T05:18:09.958Z,67.51
2022-11-08T05:20:29.913Z,67.52
2022-11-08T05:22:49.869Z,67.87
2022-11-08T05:24:51.158Z,67.72
2022-11-08T05:26:52.501Z,68.07
2022-11-08T05:28:53.772Z,68.04
2022-11-08T05:30:55.089Z,67.71
2022-11-08T05:32:56.413Z,68.15
2022-11-08T05:34:57.857Z,67.99
2022-11-08T05:36:59.123Z,67.81
2022-11-08T05:39:00.390Z,68.00
2022-11-08T05:41:01.666Z,68.46
2022-11-08T05:43:02.964Z,68.11
2022-11-08T05:45:09.234Z,68.15
2022-11-08T05:47:10.872Z,67.84
2022-11-08T05:49:12.197Z,67.91
2022-11-08T05:51:13.457Z,68.06
2022-11-08T05:53:14.929Z,68.00
2022-11-08T05:55:16.427Z,67.84
2022-11-08T05:57:21.216Z,68.19
2022-11-08T05:59:23.364Z,67.65
2022-11-08T06:01:24.758Z,67.73
2022-11-08T06:03:26.595Z,67.54
2022-11-08T06:05:28.064Z,67.39
2022-11-08T06:07:29.543Z,67.60
2022-11-08T06:09:30.816Z,67.34
2022-11-08T06:11:32.077Z,67.50
2022-11-08T06:13:33.552Z,67.37
2022-11-08T06:15:35.007Z,67.39
2022-11-08T06:17:36.277Z,67.53
2022-11-08T06:19:37.601Z,67.33
2022-11-08T06:21:38.931Z,67.13
2022-11-08T06:23:40.261Z,67.06
2022-11-08T06:25:46.439Z,66.99
2022-11-08T06:27:48.727Z,67.41
2022-11-08T06:29:49.979Z,67.38
2022-11-08T06:31:51.272Z,67.44
2022-11-08T06:33:52.591Z,67.37
2022-11-08T06:35:53.865Z,67.63
2022-11-08T06:38:00.163Z,67.75
2022-11-08T06:40:02.593Z,67.74
2022-11-08T06:42:04.217Z,67.58
2022-11-08T06:44:05.515Z,68.06
2022-11-08T06:46:07.421Z,68.14
2022-11-08T06:48:08.732Z,68.13
2022-11-08T06:50:10.005Z,68.40
2022-11-08T06:52:11.281Z,68.32
2022-11-08T06:54:17.532Z,68.44
2022-11-08T06:56:19.145Z,68.60
2022-11-08T06:58:20.442Z,68.63
2022-11-08T07:00:21.718Z,69.08
2022-11-08T07:02:23.244Z,68.80
2022-11-08T07:04:24.670Z,69.00
2022-11-08T07:06:25.945Z,68.93
2022-11-08T07:08:27.294Z,68.76
2022-11-08T07:10:28.586Z,68.96
2022-11-08T07:12:29.853Z,68.97
2022-11-08T07:14:31.113Z,69.20
2022-11-08T07:16:32.396Z,69.36
2022-11-08T07:18:33.918Z,69.25
2022-11-08T07:20:35.205Z,68.82
2022-11-08T07:22:36.556Z,68.87
2022-11-08T07:24:37.860Z,68.42
2022-11-08T07:26:39.185Z,68.52
2022-11-08T07:28:40.562Z,68.20
2022-11-08T07:30:41.834Z,68.31
2022-11-08T07:32:43.105Z,67.68
2022-11-08T07:34:44.388Z,67.83
2022-11-08T07:36:46.741Z,67.77
2022-11-08T07:38:48.018Z,67.33
2022-11-08T07:40:49.307Z,67.63
2022-11-08T07:43:10.553Z,67.57
2022-11-08T07:45:11.989Z,67.40
2022-11-08T07:47:13.401Z,67.40
2022-11-08T07:49:14.668Z,67.59
2022-11-08T07:51:16.148Z,67.78
2022-11-08T07:53:17.672Z,68.07
2022-11-08T07:55:20.088Z,67.96
2022-11-08T07:57:21.361Z,68.30
2022-11-08T07:59:22.677Z,67.95
2022-11-08T08:01:24.073Z,67.94
2022-11-08T08:03:25.454Z,67.97
2022-11-08T08:05:26.862Z,60.75
2022-11-08T08:07:28.155Z,60.13
2022-11-08T08:09:29.442Z,59.24
2022-11-08T08:11:33.594Z,62.03
2022-11-08T08:13:35.404Z,60.58
2022-11-08T08:15:37.001Z,61.27
2022-11-08T08:17:38.353Z,61.49
2022-11-08T08:19:39.629Z,61.45
2022-11-08T08:21:40.944Z,62.05
2022-11-08T08:23:42.229Z,62.21
2022-11-08T08:25:43.730Z,62.55
2022-11-08T08:27:45.040Z,62.35
2022-11-08T08:29:46.383Z,62.44
2022-11-08T08:31:47.667Z,62.53
2022-11-08T08:33:49.011Z,62.74
2022-11-08T08:35:50.356Z,62.33
2022-11-08T08:37:51.674Z,62.26
2022-11-08T08:39:52.969Z,62.69
2022-11-08T08:41:54.283Z,62.25
2022-11-08T08:43:55.594Z,59.06
2022-11-08T08:45:56.875Z,58.85
2022-11-08T08:47:58.190Z,58.63
2022-11-08T08:49:59.498Z,57.11
2022-11-08T08:52:00.817Z,56.28
2022-11-08T08:54:02.132Z,56.87
2022-11-08T08:56:03.646Z,57.63
2022-11-08T08:58:05.796Z,58.08
2022-11-08T09:02:29.118Z,58.14
2022-11-08T09:04:30.400Z,58.66
2022-11-08T09:06:31.764Z,58.07
2022-11-08T09:08:33.069Z,58.39
2022-11-08T09:10:34.383Z,58.55
2022-11-08T09:12:35.644Z,58.95
2022-11-08T09:14:36.945Z,59.46
2022-11-08T09:16:38.281Z,59.61
2022-11-08T09:18:39.652Z,60.00
2022-11-08T09:20:43.770Z,59.73
2022-11-08T09:22:45.125Z,60.09
2022-11-08T09:24:46.417Z,60.23
2022-11-08T09:26:47.708Z,60.21
2022-11-08T09:28:49.000Z,60.43
2022-11-08T09:30:50.291Z,60.45
2022-11-08T09:33:02.044Z,60.09
2022-11-08T09:37:10.021Z,60.55
2022-11-08T09:39:11.344Z,60.56
2022-11-08T09:41:12.714Z,60.68
2022-11-08T09:43:14.107Z,61.04
2022-11-08T09:45:15.507Z,61.45
2022-11-08T09:47:16.818Z,61.70
2022-11-08T09:51:19.448Z,61.88
2022-11-08T09:53:20.811Z,62.00
2022-11-08T09:55:22.098Z,62.40
2022-11-08T09:57:23.375Z,62.46
2022-11-08T09:59:24.878Z,62.32
2022-11-08T10:01:27.581Z,62.06
2022-11-08T10:03:28.981Z,60.79
2022-11-08T10:05:30.247Z,60.91
2022-11-08T10:07:31.532Z,56.13
2022-11-08T10:09:32.805Z,58.42
2022-11-08T10:11:34.085Z,57.54
2022-11-08T10:13:35.413Z,57.92
2022-11-08T10:15:36.698Z,56.74
2022-11-08T10:17:38.042Z,58.63
2022-11-08T10:19:39.777Z,57.57
2022-11-08T10:21:41.069Z,57.99
2022-11-08T10:23:42.406Z,58.84
2022-11-08T10:25:45.449Z,58.58
2022-11-08T10:27:46.776Z,58.72
2022-11-08T10:29:48.073Z,58.98
2022-11-08T10:31:49.345Z,58.56
2022-11-08T10:33:50.858Z,58.20
2022-11-08T10:35:52.139Z,59.32
2022-11-08T10:37:53.431Z,59.84
2022-11-08T10:39:55.349Z,60.42
2022-11-08T10:41:56.637Z,61.35
2022-11-08T10:43:57.965Z,62.05
2022-11-08T10:45:59.309Z,62.52
2022-11-08T10:48:00.622Z,63.06
2022-11-08T10:50:04.339Z,62.76
2022-11-08T10:52:05.924Z,63.03
2022-11-08T10:54:07.259Z,63.18
2022-11-08T10:56:08.558Z,63.01
2022-11-08T10:58:09.872Z,62.70
2022-11-08T11:00:11.148Z,63.12
2022-11-08T11:02:12.525Z,63.14
2022-11-08T11:04:16.604Z,62.85
2022-11-08T11:06:17.887Z,62.77
2022-11-08T11:08:20.063Z,63.02
2022-11-08T11:10:22.579Z,63.21
2022-11-08T11:12:23.861Z,63.26
2022-11-08T11:14:25.198Z,63.41
2022-11-08T11:16:26.481Z,63.47
2022-11-08T11:18:27.944Z,63.58
2022-11-08T11:20:29.437Z,63.99
2022-11-08T11:22:30.751Z,63.70
2022-11-08T11:24:32.113Z,64.23
2022-11-08T11:26:34.332Z,64.55
2022-11-08T11:28:38.433Z,64.48
2022-11-08T11:30:41.782Z,60.15
2022-11-08T11:32:43.073Z,63.23
2022-11-08T11:34:44.479Z,62.84
2022-11-08T11:36:45.745Z,62.98
2022-11-08T11:38:47.048Z,63.43
2022-11-08T11:40:48.397Z,63.40
2022-11-08T11:42:49.738Z,64.09
2022-11-08T11:44:51.013Z,63.98
2022-11-08T11:46:52.294Z,64.70
2022-11-08T11:48:53.789Z,64.51
2022-11-08T11:50:55.108Z,63.90
2022-11-08T11:52:56.471Z,64.75
2022-11-08T11:54:57.796Z,64.74
2022-11-08T11:56:59.099Z,65.04
2022-11-08T11:59:00.382Z,64.95
2022-11-08T12:01:02.008Z,64.78
2022-11-08T12:03:03.329Z,65.20
2022-11-08T12:05:04.632Z,65.33
2022-11-08T12:07:06.102Z,65.63
2022-11-08T12:09:07.493Z,65.30
2022-11-08T12:11:08.973Z,65.62
2022-11-08T12:13:10.249Z,65.56
2022-11-08T12:15:11.521Z,66.09
2022-11-08T12:17:12.839Z,66.38
2022-11-08T12:19:17.179Z,66.49
2022-11-08T12:21:18.480Z,66.73
2022-11-08T12:23:19.754Z,66.50
2022-11-08T12:25:21.070Z,66.78
2022-11-08T12:27:22.348Z,66.76
2022-11-08T12:29:23.872Z,63.43
2022-11-08T12:31:25.249Z,63.18
2022-11-08T12:33:26.742Z,58.26
2022-11-08T12:35:28.025Z,60.92
2022-11-08T12:37:29.519Z,60.33
2022-11-08T12:39:30.802Z,60.86
2022-11-08T12:41:34.735Z,61.04
2022-11-08T12:43:36.001Z,60.97
2022-11-08T12:45:37.297Z,61.50
2022-11-08T12:47:39.060Z,61.46
2022-11-08T12:49:40.389Z,62.12
2022-11-08T12:51:41.948Z,61.84
2022-11-08T12:53:43.302Z,62.39
2022-11-08T12:55:44.583Z,62.37
2022-11-08T12:57:45.858Z,62.84
2022-11-08T12:59:47.157Z,63.14
2022-11-08T13:01:48.472Z,63.17
2022-11-08T13:03:49.748Z,63.17
2022-11-08T13:05:52.373Z,63.41
2022-11-08T13:07:53.694Z,63.71
2022-11-08T13:09:54.976Z,63.58
2022-11-08T13:11:56.477Z,63.71
2022-11-08T13:13:58.733Z,63.35
2022-11-08T13:16:00.035Z,63.78
2022-11-08T13:18:01.329Z,63.72
2022-11-08T13:20:05.380Z,63.48
2022-11-08T13:22:07.220Z,63.82
2022-11-08T13:24:38.051Z,63.68
2022-11-08T13:26:29.890Z,63.73
2022-11-08T13:28:31.154Z,63.79
2022-11-08T13:30:32.414Z,63.76
2022-11-08T13:32:33.692Z,63.34
2022-11-08T13:34:35.021Z,63.30
2022-11-08T13:36:36.340Z,63.41
2022-11-08T13:38:37.612Z,63.37
2022-11-08T13:40:38.890Z,63.60
2022-11-08T13:42:40.206Z,63.43
2022-11-08T13:44:41.506Z,63.73
2022-11-08T13:46:42.825Z,63.79
2022-11-08T13:48:44.145Z,63.58
2022-11-08T13:50:45.434Z,63.48
2022-11-08T13:52:46.754Z,63.46
2022-11-08T13:54:48.145Z,63.56
2022-11-08T13:56:49.620Z,63.65
2022-11-08T13:58:50.933Z,63.64
2022-11-08T14:00:52.297Z,63.83
2022-11-08T14:02:53.617Z,64.54
2022-11-08T14:04:54.939Z,64.05
2022-11-08T14:06:56.318Z,64.58
2022-11-08T14:08:57.680Z,64.76
2022-11-08T14:10:58.977Z,64.83
2022-11-08T14:13:00.270Z,64.39
2022-11-08T14:15:05.171Z,64.58
2022-11-08T14:17:06.500Z,64.50
2022-11-08T14:19:07.769Z,64.75
2022-11-08T14:21:09.040Z,64.46
2022-11-08T14:23:10.515Z,64.88
2022-11-08T14:25:11.804Z,64.89
2022-11-08T14:27:13.145Z,64.97
2022-11-08T14:29:14.423Z,64.31
2022-11-08T14:31:15.718Z,64.51
2022-11-08T14:33:17.361Z,64.60
2022-11-08T14:35:18.856Z,64.09
2022-11-08T14:37:20.442Z,64.08
2022-11-08T14:39:21.725Z,64.23
2022-11-08T14:41:23.171Z,64.69
2022-11-08T14:43:24.492Z,64.53
2022-11-08T14:45:26.236Z,64.39
2022-11-08T14:47:28.640Z,64.92
2022-11-08T14:49:30.483Z,64.70
2022-11-08T14:51:31.763Z,64.61
2022-11-08T14:53:33.046Z,64.83
2022-11-08T14:55:34.323Z,64.49
2022-11-08T14:57:35.683Z,64.79
2022-11-08T14:59:36.966Z,64.46
2022-11-08T15:01:38.344Z,64.24
2022-11-08T15:03:39.706Z,64.07
2022-11-08T15:05:41.165Z,63.97
2022-11-08T15:07:42.426Z,64.38
2022-11-08T15:09:43.687Z,63.92
2022-11-08T15:11:47.300Z,63.83
2022-11-08T15:13:50.603Z,64.37
2022-11-08T15:15:51.929Z,63.94
2022-11-08T15:17:53.190Z,64.35
2022-11-08T15:19:54.456Z,63.94
2022-11-08T15:21:55.772Z,63.66
2022-11-08T15:23:57.045Z,63.83
2022-11-08T15:26:01.153Z,64.14
2022-11-08T15:28:02.730Z,64.14
2022-11-08T15:30:04.181Z,64.05
2022-11-08T15:32:05.477Z,63.82
2022-11-08T15:34:06.776Z,63.77
2022-11-08T15:36:08.071Z,64.18
2022-11-08T15:38:09.350Z,64.10
2022-11-08T15:40:16.674Z,63.81
2022-11-08T15:42:17.950Z,64.11
2022-11-08T15:44:19.293Z,64.18
2022-11-08T15:46:20.566Z,63.93
2022-11-08T15:48:22.322Z,64.11
2022-11-08T15:50:23.805Z,64.09
2022-11-08T15:52:25.121Z,64.05
2022-11-08T15:54:26.824Z,63.93
2022-11-08T15:56:28.156Z,64.08
2022-11-08T15:58:29.509Z,63.95
2022-11-08T16:00:36.305Z,64.11
2022-11-08T16:02:37.714Z,64.12
2022-11-08T16:04:39.010Z,63.55
2022-11-08T16:06:40.405Z,64.14
2022-11-08T16:08:41.729Z,63.72
2022-11-08T16:10:43.011Z,64.08
2022-11-08T16:12:47.175Z,64.13
2022-11-08T16:14:48.503Z,64.15
2022-11-08T16:16:49.834Z,63.75
2022-11-08T16:18:51.172Z,64.26
2022-11-08T16:20:55.472Z,64.20
2022-11-08T16:22:56.805Z,64.12
2022-11-08T16:24:58.245Z,64.25
2022-11-08T16:26:59.526Z,64.31
2022-11-08T16:29:00.800Z,64.32
2022-11-08T16:31:02.086Z,64.13
2022-11-08T16:33:03.354Z,64.02
2022-11-08T16:35:04.643Z,64.13
2022-11-08T16:37:05.961Z,64.20
2022-11-08T16:39:07.246Z,64.21
2022-11-08T16:41:08.558Z,63.79
2022-11-08T16:43:09.835Z,64.27
2022-11-08T16:45:11.107Z,64.04
2022-11-08T16:47:16.290Z,64.21
2022-11-08T16:49:17.582Z,64.18
2022-11-08T16:51:18.994Z,64.28
2022-11-08T16:53:23.048Z,63.64
2022-11-08T16:55:24.324Z,63.71
2022-11-08T16:57:34.657Z,64.18
2022-11-08T16:59:36.542Z,64.31
2022-11-08T17:01:40.926Z,64.15
2022-11-08T17:03:44.905Z,64.14
2022-11-08T17:05:46.229Z,64.04
2022-11-08T17:07:47.546Z,63.93
2022-11-08T17:09:48.824Z,63.88
2022-11-08T17:11:52.790Z,64.08
2022-11-08T17:13:55.203Z,63.98
2022-11-08T17:15:56.518Z,63.74
2022-11-08T17:17:57.841Z,64.13
2022-11-08T17:19:59.243Z,63.76
2022-11-08T17:22:00.636Z,63.76
2022-11-08T17:24:02.023Z,64.11
2022-11-08T17:26:03.297Z,64.10
2022-11-08T17:28:04.578Z,63.93
2022-11-08T17:30:05.893Z,63.87
2022-11-08T17:32:07.217Z,63.55
2022-11-08T17:34:08.539Z,64.03
2022-11-08T17:36:09.860Z,63.78
2022-11-08T17:38:12.334Z,64.01
2022-11-08T17:40:16.678Z,63.85
2022-11-08T17:42:17.938Z,63.72
2022-11-08T17:44:19.290Z,63.60
2022-11-08T17:46:20.600Z,64.08
2022-11-08T17:48:22.066Z,64.11
2022-11-08T17:50:23.453Z,64.05
2022-11-08T17:52:24.933Z,63.79
2022-11-08T17:54:28.943Z,64.21
2022-11-08T17:56:33.080Z,64.14
2022-11-08T17:58:34.633Z,64.02
2022-11-08T18:00:36.122Z,63.66
2022-11-08T18:02:37.468Z,63.97
2022-11-08T18:04:38.745Z,63.71
2022-11-08T18:06:40.106Z,63.75
2022-11-08T18:08:42.016Z,64.01
2022-11-08T18:10:43.276Z,64.22
2022-11-08T18:12:44.992Z,64.12
2022-11-08T18:14:46.284Z,63.82
2022-11-08T18:16:49.102Z,63.85
2022-11-08T18:18:59.251Z,63.82
2022-11-08T18:21:00.543Z,64.21
2022-11-08T18:23:01.871Z,64.14
2022-11-08T18:25:03.154Z,64.11
2022-11-08T18:27:04.462Z,64.15
2022-11-08T18:29:08.981Z,63.72
2022-11-08T18:31:10.664Z,64.06
2022-11-08T18:33:11.970Z,63.64
2022-11-08T18:35:13.291Z,64.24
2022-11-08T18:37:14.586Z,64.03
2022-11-08T18:39:19.999Z,64.19
2022-11-08T18:41:22.405Z,63.71
2022-11-08T18:43:23.684Z,63.70
2022-11-08T18:45:25.389Z,64.04
2022-11-08T18:47:28.415Z,63.72
2022-11-08T18:49:29.677Z,64.06
2022-11-08T18:51:30.984Z,63.58
2022-11-08T18:53:32.265Z,64.00
2022-11-08T18:55:36.272Z,63.99
2022-11-08T18:57:44.042Z,64.05
2022-11-08T18:59:48.107Z,64.00
2022-11-08T19:01:49.481Z,63.57
2022-11-08T19:04:08.949Z,64.05
2022-11-08T19:06:19.618Z,63.85
2022-11-08T19:08:39.332Z,63.49
2022-11-08T19:10:43.661Z,63.82
2022-11-08T19:12:46.190Z,63.67
2022-11-08T19:14:50.333Z,63.81
2022-11-08T19:16:55.990Z,64.05
2022-11-08T19:18:57.322Z,63.54
2022-11-08T19:20:58.646Z,63.76
2022-11-08T19:23:05.869Z,64.01
2022-11-08T19:25:07.153Z,63.99
2022-11-08T19:27:09.468Z,63.86
2022-11-08T19:29:11.300Z,63.98
2022-11-08T19:31:12.629Z,63.91
2022-11-08T19:33:13.908Z,63.81
2022-11-08T19:35:18.213Z,63.85
2022-11-08T19:37:19.551Z,63.88
2022-11-08T19:39:23.964Z,63.85
2022-11-08T19:41:28.018Z,63.81
2022-11-08T19:43:32.165Z,63.87
2022-11-08T19:45:33.531Z,63.70
2022-11-08T19:47:34.854Z,63.89
2022-11-08T19:49:37.064Z,63.93
2022-11-08T19:51:41.179Z,63.85
2022-11-08T19:53:42.465Z,63.80
2022-11-08T19:55:43.754Z,63.81
2022-11-08T19:57:45.087Z,63.52
2022-11-08T19:59:46.417Z,63.26
2022-11-08T20:01:50.853Z,63.35
2022-11-08T20:03:54.959Z,63.67
2022-11-08T20:05:56.276Z,63.70
2022-11-08T20:07:57.765Z,64.04
2022-11-08T20:10:05.183Z,63.88
2022-11-08T20:12:06.652Z,63.86
2022-11-08T20:14:08.050Z,63.49
2022-11-08T20:16:12.322Z,63.80
2022-11-08T20:18:13.597Z,63.69
2022-11-08T20:20:15.060Z,63.69
2022-11-08T20:22:16.339Z,63.77
2022-11-08T20:24:21.664Z,64.25
2022-11-08T20:26:22.930Z,64.14
2022-11-08T20:28:24.440Z,64.55
2022-11-08T20:30:25.750Z,64.06
2022-11-08T20:32:27.090Z,64.13
2022-11-08T20:34:29.767Z,64.18
2022-11-08T20:36:35.122Z,64.04
2022-11-08T20:38:39.679Z,63.66
2022-11-08T20:40:41.033Z,63.76
2022-11-08T20:42:42.362Z,63.84
2022-11-08T20:44:43.630Z,63.72
2022-11-08T20:46:47.993Z,63.73
2022-11-08T20:48:51.183Z,63.64
2022-11-08T20:50:52.850Z,63.72
2022-11-08T20:52:54.156Z,63.71
2022-11-08T20:54:55.453Z,63.65
2022-11-08T20:56:56.750Z,63.48
2022-11-08T20:58:58.089Z,63.58
2022-11-08T21:00:59.412Z,63.41
2022-11-08T21:03:00.690Z,63.35
2022-11-08T21:05:01.974Z,63.45
2022-11-08T21:09:40.464Z,63.31
2022-11-08T21:11:43.716Z,63.38
2022-11-08T21:13:45.350Z,62.91
2022-11-08T21:15:52.683Z,62.88
2022-11-08T21:17:53.977Z,63.26
2022-11-08T21:19:55.252Z,62.87
2022-11-08T21:22:14.978Z,63.28
2022-11-08T21:24:17.254Z,63.14
2022-11-08T21:26:19.188Z,62.77
2022-11-08T21:28:23.189Z,63.26
2022-11-08T21:30:24.444Z,63.34
2022-11-08T21:32:25.726Z,63.28
2022-11-08T21:34:32.015Z,63.33
2022-11-08T21:36:33.975Z,63.37
2022-11-08T21:38:35.317Z,62.93
2022-11-08T21:40:36.648Z,63.26
2022-11-08T21:42:39.766Z,63.46
2022-11-08T21:44:43.029Z,63.58
2022-11-08T21:46:44.573Z,63.61
2022-11-08T21:48:45.959Z,63.51
2022-11-08T21:50:47.237Z,63.45
2022-11-08T21:52:48.592Z,63.43
2022-11-08T21:54:49.864Z,63.86
2022-11-08T21:56:51.190Z,64.01
2022-11-08T21:58:52.524Z,63.61
2022-11-08T22:00:53.855Z,63.94
2022-11-08T22:02:55.506Z,64.29
2022-11-08T22:04:56.774Z,63.75
2022-11-08T22:06:58.114Z,64.23
2022-11-08T22:08:59.499Z,64.05
2022-11-08T22:11:00.767Z,63.75
2022-11-08T22:13:02.045Z,63.88
2022-11-08T22:15:03.396Z,63.77
2022-11-08T22:17:04.682Z,63.50
2022-11-08T22:19:06.416Z,60.57
2022-11-08T22:21:26.641Z,56.11
2022-11-08T22:23:28.041Z,57.69
2022-11-08T22:25:29.695Z,57.51
2022-11-08T22:27:30.984Z,56.03
2022-11-08T22:29:32.295Z,57.00
2022-11-08T22:31:33.593Z,57.25
2022-11-08T22:33:34.874Z,57.33
2022-11-08T22:35:36.636Z,57.28
2022-11-08T22:37:39.230Z,58.16
2022-11-08T22:39:40.492Z,58.02
2022-11-08T22:41:41.846Z,58.22
2022-11-08T22:43:43.196Z,58.71
2022-11-08T22:45:44.659Z,59.16
2022-11-08T22:47:45.966Z,59.08
2022-11-08T22:49:47.477Z,59.81
2022-11-08T22:51:48.809Z,59.87
2022-11-08T22:53:50.190Z,59.36
2022-11-08T22:55:51.568Z,59.41
2022-11-08T22:57:53.483Z,59.73
2022-11-08T22:59:54.834Z,59.01
2022-11-08T23:01:57.113Z,59.43
2022-11-08T23:03:58.476Z,59.82
2022-11-08T23:05:59.812Z,59.69
2022-11-08T23:08:01.127Z,60.27
2022-11-08T23:10:02.417Z,60.38
2022-11-08T23:12:22.694Z,60.53
2022-11-08T23:14:42.634Z,61.05
2022-11-08T23:16:43.962Z,60.63
2022-11-08T23:19:04.015Z,60.61
2022-11-08T23:21:24.076Z,60.94
2022-11-08T23:23:43.936Z,61.07
2022-11-08T23:25:45.223Z,61.87
2022-11-08T23:28:05.081Z,61.41
2022-11-08T23:30:25.666Z,60.94
2022-11-08T23:32:27.009Z,61.00
2022-11-08T23:34:28.294Z,61.07
2022-11-08T23:36:29.581Z,61.38
2022-11-08T23:38:30.933Z,61.77
2022-11-08T23:40:51.060Z,61.73
2022-11-08T23:43:21.843Z,61.79
2022-11-08T23:45:23.530Z,62.06
2022-11-08T23:47:24.811Z,61.65
2022-11-08T23:49:26.137Z,62.14
2022-11-08T23:51:27.397Z,61.78
2022-11-08T23:53:29.521Z,62.36
2022-11-08T23:55:30.842Z,62.67
2022-11-08T23:57:32.180Z,62.10
2022-11-08T23:59:33.472Z,61.66
